ADDS METAR Data INFO
IDs: Format: Raw Decoded Include TAF

Data at: 0846 UTC 27 Jun 2017

KUVA 270835Z AUTO 00000KT 7SM SCT020 SCT075 SCT110 23/22 A3003 RMK AO2 T02250220
KUVA 270815Z AUTO 00000KT 10SM SCT075 BKN100 23/22 A3003 RMK AO2 T02250220
KUVA 270755Z AUTO 00000KT 10SM SCT020 OVC100 23/22 A3004 RMK AO2 T02260220
KUVA 270735Z AUTO 00000KT 10SM SCT020 BKN027 OVC100 23/22 A3004 RMK AO2 T02260220
KUVA 270715Z AUTO 00000KT 10SM SCT018 BKN100 23/22 A3004 RMK AO2 LTG DSNT W T02260218
KUVA 270655Z AUTO 00000KT 10SM CLR 23/22 A3004 RMK AO2 T02260217
KUVA 270635Z AUTO 00000KT 10SM CLR 23/22 A3004 RMK AO2 T02260217
KUVA 270615Z AUTO 07006KT 10SM CLR 23/22 A3005 RMK AO2 T02260216
KUVA 270555Z AUTO 07007KT 10SM SCT120 23/22 A3005 RMK AO2 60003 T02250216 10318 20218 403400217
KUVA 270535Z AUTO 06006KT 10SM CLR 23/22 A3005 RMK AO2 T02250215
KUVA 270515Z AUTO 04007KT 10SM -RA SCT023 SCT035 SCT047 23/22 A3005 RMK AO2 T02250215
KUVA 270455Z AUTO 00000KT 10SM -DZ SCT022 SCT029 BKN045 23/22 A3005 RMK AO2 T02300220
KUVA 270435Z AUTO 00000KT 10SM CLR 23/22 A3005 RMK AO2 LTG DSNT S T02260220
KUVA 270415Z AUTO 10005KT 10SM SCT070 BKN090 23/22 A3004 RMK AO2 T02290219
KUVA 270355Z AUTO 12014KT 10SM -RA SCT043 BKN070 OVC100 22/21 A3003 RMK AO2 LTG DSNT NE AND SE P0001 T02220209
KUVA 270335Z AUTO 10012G20KT 10SM SCT031 BKN039 OVC055 23/21 A3003 RMK AO2 LTG DSNT SE T02270212
KUVA 270315Z AUTO 08017G22KT 10SM -VCTSRA BKN031 BKN037 OVC050 23/22 A3003 RMK AO2 LTG DSNT E T02270217
KUVA 270255Z AUTO 05011KT 10SM -VCTSDZ BKN031 OVC037 23/21 A3002 RMK AO2 LTG DSNT E P0001 60002 T02250212
KUVA 270235Z AUTO 04010G18KT 10SM RA SCT037 BKN050 BKN060 23/21 A3002 RMK AO2 LTG DSNT N NE AND SW P0001 T02310211
KUVA 270215Z AUTO 00000KT 10SM RA SCT060 SCT075 SCT085 24/23 A3002 RMK AO2 LTG DSNT N AND NE P0001 T02390225
KUVA 270155Z AUTO 00000KT 10SM RA CLR 24/22 A3000 RMK AO2 LTG DSNT NE P0001 T02420224
KUVA 270135Z AUTO 00000KT 10SM -TSRA SCT032 SCT049 SCT060 25/22 A3000 RMK AO2 LTG DSNT N AND NE T02460222
KUVA 270115Z AUTO 34003KT 10SM VCTS BKN060 BKN070 BKN085 26/21 A2999 RMK AO2 LTG DSNT N T02590213
KUVA 270055Z AUTO 35009KT 10SM BKN060 BKN070 OVC085 27/21 A2999 RMK AO2 LTG DSNT N T02660208
KUVA 270035Z AUTO 02008KT 10SM SCT050 BKN070 OVC080 27/21 A2998 RMK AO2 LTG DSNT N T02710205
KUVA 270015Z AUTO 11008KT 10SM TS SCT070 31/19 A2997 RMK AO2 LTG DSNT N AND NW T03050188
KUVA 262355Z AUTO 13010KT 10SM TS SCT055 32/19 A2995 RMK AO2 LTG DSNT N T03180190 10340 20297
KUVA 262335Z AUTO 13010G15KT 10SM TS SCT055 32/20 A2996 RMK AO2 LTG DSNT N AND NW T03230195
KUVA 262315Z AUTO 13013G17KT 10SM SCT055 SCT085 33/20 A2996 RMK AO2 LTG DSNT NW T03270197
KUVA 262255Z AUTO 14011KT 10SM CLR 33/20 A2996 RMK AO2 T03290201
KUVA 262235Z AUTO 13011G16KT 10SM SCT110 33/20 A2996 RMK AO2 T03290200
KUVA 262215Z AUTO 08009KT 10SM SCT060 SCT075 BKN110 33/19 A2996 RMK AO2 T03330191
KUVA 262155Z AUTO 09010G14KT 10SM BKN060 BKN100 33/19 A2997 RMK AO2 T03250189
KUVA 262135Z AUTO 00000KT 10SM SCT060 BKN070 BKN085 33/19 A2998 RMK AO2 LTG DSNT NW T03260187
KUVA 262115Z AUTO 00000KT 10SM SCT060 SCT070 BKN085 32/18 A2999 RMK AO2 T03190183
KUVA 262055Z AUTO 00000KT 10SM SCT050 BKN070 OVC100 32/19 A2999 RMK AO2 T03150185
KUVA 262035Z AUTO 05006KT 10SM BKN050 BKN065 32/19 A3000 RMK AO2 T03150190
KUVA 262015Z AUTO 16003KT 10SM SCT050 32/19 A3002 RMK AO2 T03220192
KUVA 261955Z AUTO 00000KT 10SM SCT050 31/19 A3003 RMK AO2 T03090193
KUVA 261935Z AUTO 11005KT 10SM SCT100 31/20 A3004 RMK AO2 T03120195
KUVA 261915Z AUTO 00000KT 10SM BKN100 31/19 A3005 RMK AO2 T03080193
KUVA 261855Z AUTO 00000KT 10SM BKN090 BKN110 30/19 A3006 RMK AO2 T03020194
KUVA 261835Z AUTO 16003KT 10SM BKN090 BKN110 30/20 A3007 RMK AO2 T02970198
KUVA 261815Z AUTO 09005KT 10SM SCT042 SCT065 BKN090 30/20 A3008 RMK AO2 T03010199
KUVA 261755Z AUTO 00000KT 10SM SCT044 SCT080 BKN090 30/20 A3009 RMK AO2 T03000199 10305 20225
KUVA 261735Z AUTO 00000KT 10SM SCT042 SCT080 30/19 A3009 RMK AO2 T03040191
KUVA 261715Z AUTO 17006KT 10SM SCT038 SCT050 30/20 A3010 RMK AO2 T03030197
KUVA 261655Z AUTO 00000KT 10SM SCT034 SCT080 30/21 A3011 RMK AO2 T02970206
KUVA 261635Z AUTO 00000KT 10SM SCT070 28/22 A3011 RMK AO2 T02770215
KUVA 261615Z AUTO 00000KT 10SM SCT075 27/22 A3012 RMK AO2 T02710215
KUVA 261555Z AUTO 00000KT 10SM SCT065 BKN075 27/22 A3013 RMK AO2 T02710219
KUVA 261535Z AUTO 00000KT 10SM SCT021 SCT027 26/22 A3013 RMK AO2 T02620215
KUVA 261515Z AUTO 00000KT 10SM SCT020 SCT027 28/22 A3013 RMK AO2 T02750217
KUVA 261455Z AUTO 00000KT 10SM SCT015 SCT029 BKN042 27/22 A3013 RMK AO2 T02660217
KUVA 261435Z AUTO 00000KT 10SM BKN012 BKN018 BKN025 26/22 A3014 RMK AO2 T02550219
KUVA 261415Z AUTO 00000KT 10SM BKN012 BKN018 BKN060 26/22 A3014 RMK AO2 T02570222
KUVA 261355Z AUTO 00000KT 10SM SCT008 SCT016 25/22 A3014 RMK AO2 T02520221
KUVA 261335Z AUTO 00000KT 10SM SCT008 SCT017 25/22 A3014 RMK AO2 T02490224
KUVA 261315Z AUTO 09007KT 10SM BKN006 BKN011 OVC036 24/22 A3013 RMK AO2 T02430222
KUVA 261255Z AUTO 10006KT 10SM BKN006 BKN011 OVC021 24/22 A3013 RMK AO2 T02400223
KUVA 261235Z AUTO 00000KT 10SM OVC006 23/22 A3012 RMK AO2 T02320220
KUVA 261215Z AUTO 00000KT 10SM BKN006 OVC013 23/22 A3011 RMK AO2 T02300219
KUVA 261155Z AUTO 00000KT 10SM SCT006 BKN015 BKN020 23/22 A3011 RMK AO2 T02250215 10234 20217
KUVA 261135Z AUTO 00000KT 10SM SCT008 BKN018 BKN027 23/22 A3011 RMK AO2 T02250215
KUVA 261115Z AUTO 00000KT 10SM SCT006 BKN010 OVC019 23/22 A3011 RMK AO2 T02280215
KUVA 261055Z AUTO 00000KT 10SM BKN010 OVC019 23/21 A3011 RMK AO2 T02250213
KUVA 261035Z AUTO 00000KT 10SM SCT007 SCT010 OVC019 23/21 A3011 RMK AO2 T02250212
KUVA 261015Z AUTO 00000KT 10SM BKN007 OVC017 22/21 A3011 RMK AO2 T02230211
KUVA 260955Z AUTO 00000KT 10SM SCT007 BKN013 BKN018 22/21 A3011 RMK AO2 T02200210
KUVA 260935Z AUTO 00000KT 10SM CLR 22/21 A3011 RMK AO2 T02180207
KUVA 260915Z AUTO 00000KT 10SM CLR 22/21 A3011 RMK AO2 T02200209
KUVA 260855Z AUTO 00000KT 10SM CLR 22/21 A3012 RMK AO2 T02230210
KUVA 260835Z AUTO 00000KT 10SM SCT070 23/21 A3013 RMK AO2 T02270211
KUVA 260815Z AUTO 00000KT 10SM SCT060 SCT070 OVC080 23/21 A3013 RMK AO2 T02300211
KUVA 260755Z AUTO 00000KT 10SM SCT046 SCT060 BKN070 23/21 A3013 RMK AO2 T02300210
KUVA 260735Z AUTO 00000KT 10SM SCT043 SCT050 BKN060 23/21 A3013 RMK AO2 T02310210
KUVA 260715Z AUTO 00000KT 10SM SCT048 BKN060 23/21 A3013 RMK AO2 T02330210
KUVA 260655Z AUTO 08004KT 10SM SCT034 SCT042 SCT060 23/21 A3012 RMK AO2 T02320211
KUVA 260635Z AUTO 00000KT 10SM SCT034 23/21 A3013 RMK AO2 T02310210
KUVA 260615Z AUTO 00000KT 10SM CLR 23/21 A3012 RMK AO2 T02250207
KUVA 260555Z AUTO 00000KT 10SM CLR 23/21 A3012 RMK AO2 T02300207 10298 20230 403260211
KUVA 260535Z AUTO 00000KT 10SM CLR 23/21 A3012 RMK AO2 T02310206
KUVA 260515Z AUTO 00000KT 10SM CLR 23/20 A3012 RMK AO2 T02300204
KUVA 260455Z AUTO 00000KT 10SM CLR 23/20 A3013 RMK AO2 T02320202
KUVA 260435Z AUTO 00000KT 10SM CLR 24/20 A3012 RMK AO2 T02370201
KUVA 260415Z AUTO 00000KT 10SM CLR 24/20 A3011 RMK AO2 T02370200
KUVA 260355Z AUTO 00000KT 10SM CLR 24/20 A3010 RMK AO2 T02410200
KUVA 260335Z AUTO 00000KT 10SM CLR 24/20 A3010 RMK AO2 T02440198
KUVA 260315Z AUTO 00000KT 10SM CLR 25/20 A3009 RMK AO2 T02500197
KUVA 260255Z AUTO 00000KT 10SM CLR 25/20 A3009 RMK AO2 T02540196
KUVA 260235Z AUTO 00000KT 10SM CLR 26/20 A3008 RMK AO2 T02580200
KUVA 260215Z AUTO 12006KT 10SM CLR 27/20 A3008 RMK AO2 T02650202
KUVA 260155Z AUTO 11005KT 10SM CLR 27/21 A3008 RMK AO2 T02700205
KUVA 260135Z AUTO 12007KT 10SM CLR 28/21 A3007 RMK AO2 T02760206
KUVA 260115Z AUTO 12007KT 10SM CLR 28/21 A3007 RMK AO2 T02810210
KUVA 260055Z AUTO 11007KT 10SM CLR 29/21 A3007 RMK AO2 T02860210
KUVA 260035Z AUTO 12008G14KT 10SM CLR 29/20 A3007 RMK AO2 T02900201
KUVA 260015Z AUTO 13010KT 10SM CLR 29/21 A3007 RMK AO2 T02920208
KUVA 252355Z AUTO 14010KT 10SM CLR 30/21 A3007 RMK AO2 T02980206 10326 20289
KUVA 252335Z AUTO 13007KT 10SM CLR 30/20 A3006 RMK AO2 T03030196
KUVA 252315Z AUTO 12011KT 10SM CLR 31/19 A3006 RMK AO2 T03070189
KUVA 252255Z AUTO 12013G18KT 10SM SCT100 31/19 A3006 RMK AO2 T03140188
KUVA 252235Z AUTO 11012G16KT 10SM SCT085 BKN100 31/19 A3008 RMK AO2 LTG DSNT S T03050189
KUVA 252215Z AUTO 13011KT 10SM SCT100 32/21 A3008 RMK AO2 T03170211
KUVA 252155Z AUTO 12014G18KT 7SM SCT110 31/21 A3009 RMK AO2 T03100208
KUVA 252135Z AUTO 12014KT 7SM CLR 32/22 A3008 RMK AO2 T03220215
KUVA 252115Z AUTO 11006KT 10SM CLR 32/19 A3009 RMK AO2 T03200191
KUVA 252055Z AUTO 09007KT 10SM CLR 32/20 A3009 RMK AO2 T03150199


Page loaded:  08:46 UTC  |   01:46 AM Pacific  |   02:46 AM Mountain  |   03:46 AM Central  |   04:46 AM Eastern

 

ADVISORIES

FORECASTS

FORECASTS

OBSERVATIONS

USER TOOLS

ABOUT US